Time;durP1;ratioP1;P1;durP2;ratioP2;P2;SDS_P1;SDS_P2;PMS_P1;PMS_P2;Temp;Humidity;BMP_temperature;BMP_pressure;BME280_temperature;BME280_humidity;BME280_pressure;Samples;Min_cycle;Max_cycle;Signal;HPM_P1;HPM_P2
2023/03/02 00:01:56;;;;;;;2.83;2.63;;;;;-0.20;95986.00;;;;5055293;28;20266;-64
2023/03/02 00:04:26;;;;;;;4.40;4.10;;;;;-0.10;95987.00;;;;5055314;28;20182;-64
2023/03/02 00:06:59;;;;;;;7.03;4.07;;;;;-0.20;95978.00;;;;5055435;28;20226;-63
2023/03/02 00:09:27;;;;;;;5.80;3.93;;;;;-0.30;95982.00;;;;5037304;28;20275;-63
2023/03/02 00:11:55;;;;;;;3.80;3.50;;;;;-0.40;95974.00;;;;5055186;28;20185;-63
2023/03/02 00:14:24;;;;;;;5.57;5.03;;;;;-0.30;95974.00;;;;5055273;28;20192;-64
2023/03/02 00:16:52;;;;;;;3.43;3.23;;;;;-0.30;95977.00;;;;5055146;28;20219;-64
2023/03/02 00:19:20;;;;;;;8.20;5.30;;;;;-0.30;95974.00;;;;5054970;28;20242;-63
2023/03/02 00:21:47;;;;;;;5.03;3.60;;;;;-0.20;95971.00;;;;5055393;28;20223;-66
2023/03/02 00:24:15;;;;;;;4.43;3.83;;;;;-0.30;95971.00;;;;5055117;28;20196;-63
2023/03/02 00:26:42;;;;;;;3.37;3.13;;;;;-0.30;95974.00;;;;5054878;28;20252;-64
2023/03/02 00:29:10;;;;;;;7.07;3.63;;;;;-0.30;95973.00;;;;5055083;28;20243;-64
2023/03/02 00:31:39;;;;;;;3.73;3.43;;;;;-0.30;95971.00;;;;5054707;28;20192;-64
2023/03/02 00:34:06;;;;;;;7.03;4.80;;;;;-0.30;95959.00;;;;5054704;28;20205;-65
2023/03/02 00:36:34;;;;;;;4.23;3.83;;;;;-0.30;95961.00;;;;5054413;28;20185;-62
2023/03/02 00:39:02;;;;;;;3.90;3.47;;;;;-0.30;95957.00;;;;5036871;28;20247;-62
2023/03/02 00:41:30;;;;;;;7.20;5.77;;;;;-0.40;95958.00;;;;5054480;28;20386;-64
2023/03/02 00:43:57;;;;;;;7.30;4.00;;;;;-0.50;95953.00;;;;5054445;28;20200;-64
2023/03/02 00:46:27;;;;;;;3.80;3.50;;;;;-0.50;95961.00;;;;5054484;28;20188;-64
2023/03/02 00:48:56;;;;;;;2.67;2.47;;;;;-0.50;95959.00;;;;5054278;28;20243;-64
2023/03/02 00:51:24;;;;;;;4.57;3.20;;;;;-0.40;95959.00;;;;5054321;28;20193;-63
2023/03/02 00:53:52;;;;;;;2.90;2.70;;;;;-0.50;95951.00;;;;5054284;28;20220;-63
2023/03/02 00:56:19;;;;;;;6.03;3.30;;;;;-0.50;95955.00;;;;5054464;28;20557;-63
2023/03/02 00:58:47;;;;;;;3.63;3.33;;;;;-0.50;95950.00;;;;5054394;28;20270;-64
2023/03/02 01:01:14;;;;;;;16.40;2.07;;;;;-0.50;95954.00;;;;5054817;28;20213;-62
2023/03/02 01:03:41;;;;;;;5.93;4.03;;;;;-0.60;95944.00;;;;5054165;28;20675;-62
2023/03/02 01:06:17;;;;;;;7.33;4.40;;;;;-0.60;95952.00;;;;5054076;28;20200;-63
2023/03/02 01:08:45;;;;;;;7.87;4.00;;;;;-0.60;95949.00;;;;5054314;28;20715;-63
2023/03/02 01:11:14;;;;;;;3.63;2.90;;;;;-0.60;95950.00;;;;5054483;28;20202;-64
2023/03/02 01:13:41;;;;;;;4.77;3.03;;;;;-0.70;95941.00;;;;5053874;28;20191;-64
2023/03/02 01:16:09;;;;;;;2.90;2.70;;;;;-0.60;95940.00;;;;5054120;28;20198;-62
2023/03/02 01:18:37;;;;;;;5.37;4.87;;;;;-0.70;95935.00;;;;5053898;28;20213;-63
2023/03/02 01:21:08;;;;;;;16.67;4.70;;;;;-0.60;95939.00;;;;5036040;28;20715;-63
2023/03/02 01:23:36;;;;;;;3.27;2.87;;;;;-0.70;95936.00;;;;5053727;28;20276;-64
2023/03/02 01:26:04;;;;;;;3.60;2.73;;;;;-0.80;95927.00;;;;5053843;28;20196;-63
2023/03/02 01:28:31;;;;;;;3.63;3.30;;;;;-0.70;95934.00;;;;5053575;28;20224;-64
2023/03/02 01:31:00;;;;;;;3.00;2.80;;;;;-0.80;95926.00;;;;5053615;28;20201;-62
2023/03/02 01:33:27;;;;;;;4.13;3.83;;;;;-0.80;95920.00;;;;5053797;28;20192;-63
2023/03/02 01:35:54;;;;;;;6.87;3.83;;;;;-0.90;95911.00;;;;5054431;28;20552;-64
2023/03/02 01:38:22;;;;;;;3.77;2.90;;;;;-1.00;95921.00;;;;5035702;28;20216;-64
2023/03/02 01:40:51;;;;;;;3.50;3.20;;;;;-0.90;95920.00;;;;5053413;28;20227;-62
2023/03/02 01:43:18;;;;;;;2.57;2.47;;;;;-0.90;95913.00;;;;5035592;28;20660;-63
2023/03/02 01:45:56;;;;;;;5.00;3.47;;;;;-0.80;95910.00;;;;5053767;28;20198;-63
2023/03/02 01:48:28;;;;;;;3.57;3.27;;;;;-0.80;95911.00;;;;5052838;28;20243;-63
2023/03/02 01:50:57;;;;;;;3.67;2.73;;;;;-0.90;95908.00;;;;5053397;28;20173;-64
2023/03/02 01:53:27;;;;;;;3.77;3.30;;;;;-1.10;95903.00;;;;5053292;28;20197;-64
2023/03/02 01:55:56;;;;;;;5.17;4.67;;;;;-0.90;95901.00;;;;5053535;28;20203;-63
2023/03/02 01:58:24;;;;;;;3.40;3.20;;;;;-0.80;95886.00;;;;5053512;28;20573;-63
2023/03/02 02:00:54;;;;;;;5.50;3.43;;;;;-0.90;95892.00;;;;5053063;28;20663;-64
2023/03/02 02:03:26;;;;;;;3.87;3.33;;;;;-0.90;95903.00;;;;5053255;28;20204;-63
2023/03/02 02:06:05;;;;;;;6.20;4.23;;;;;-1.00;95885.00;;;;5053415;28;20203;-63
2023/03/02 02:08:33;;;;;;;7.43;2.83;;;;;-0.90;95895.00;;;;5053325;28;20207;-63
2023/03/02 02:11:02;;;;;;;3.03;2.83;;;;;-1.00;95882.00;;;;5053247;28;20188;-63
2023/03/02 02:13:30;;;;;;;5.97;4.67;;;;;-1.10;95894.00;;;;5053053;28;20329;-62
2023/03/02 02:15:57;;;;;;;2.67;2.47;;;;;-1.10;95891.00;;;;5053054;28;20682;-63
2023/03/02 02:18:26;;;;;;;3.93;3.10;;;;;-1.00;95891.00;;;;5052987;28;20219;-63
2023/03/02 02:20:55;;;;;;;1.83;1.77;;;;;-1.20;95882.00;;;;5052909;28;20540;-62
2023/03/02 02:23:29;;;;;;;6.67;3.77;;;;;-1.10;95877.00;;;;5053282;28;20254;-63
2023/03/02 02:26:17;;;;;;;2.43;2.23;;;;;-1.10;95884.00;;;;5053217;28;20191;-62
2023/03/02 02:28:51;;;;;;;2.80;2.60;;;;;-1.20;95873.00;;;;5053093;28;20584;-64
2023/03/02 02:31:25;;;;;;;4.30;3.00;;;;;-1.20;95893.00;;;;5035167;28;20184;-63
2023/03/02 02:33:55;;;;;;;3.60;3.30;;;;;-1.20;95881.00;;;;5053146;28;20196;-62
2023/03/02 02:36:31;;;;;;;5.23;3.33;;;;;-1.00;95875.00;;;;5053077;28;20199;-63
2023/03/02 02:39:02;;;;;;;2.60;2.40;;;;;-1.20;95866.00;;;;5053187;28;20200;-62
2023/03/02 02:41:36;;;;;;;2.50;2.40;;;;;-1.20;95875.00;;;;5053314;28;20200;-63
2023/03/02 02:44:05;;;;;;;5.43;3.40;;;;;-1.20;95880.00;;;;5053023;28;20188;-63
2023/03/02 02:46:33;;;;;;;7.23;4.37;;;;;-1.20;95872.00;;;;5052893;28;20571;-63
2023/03/02 02:49:02;;;;;;;5.40;4.80;;;;;-1.20;95868.00;;;;5053575;28;20233;-64
2023/03/02 02:51:30;;;;;;;3.83;3.47;;;;;-1.20;95857.00;;;;5034855;28;20192;-63
2023/03/02 02:53:59;;;;;;;3.57;2.83;;;;;-1.30;95861.00;;;;5052892;28;20223;-64
2023/03/02 02:56:32;;;;;;;3.13;2.83;;;;;-1.20;95859.00;;;;5052672;28;20196;-63
2023/03/02 02:59:04;;;;;;;4.57;3.10;;;;;-1.20;95864.00;;;;5053513;28;20181;-64
2023/03/02 03:01:33;;;;;;;5.97;3.47;;;;;-1.20;95868.00;;;;5056918;28;20236;-64
2023/03/02 03:04:03;;;;;;;3.63;3.43;;;;;-1.30;95865.00;;;;5038451;28;20199;-63
2023/03/02 03:06:37;;;;;;;2.70;2.40;;;;;-1.20;95862.00;;;;5056249;28;20205;-63
2023/03/02 03:09:05;;;;;;;4.40;2.43;;;;;-1.20;95856.00;;;;5038564;28;20192;-64
2023/03/02 03:11:36;;;;;;;2.23;2.03;;;;;-1.20;95859.00;;;;5057499;28;20299;-63
2023/03/02 03:14:08;;;;;;;7.43;3.97;;;;;-1.20;95859.00;;;;5056266;28;20191;-63
2023/03/02 03:16:37;;;;;;;5.30;3.10;;;;;-1.20;95862.00;;;;5056354;28;20243;-63
2023/03/02 03:19:10;;;;;;;5.23;3.83;;;;;-1.20;95861.00;;;;5055980;28;20192;-63
2023/03/02 03:21:37;;;;;;;4.73;3.27;;;;;-1.20;95870.00;;;;5056524;28;20207;-63
2023/03/02 03:24:05;;;;;;;3.57;3.33;;;;;-1.30;95865.00;;;;5056042;28;20197;-64
2023/03/02 03:26:34;;;;;;;3.87;3.47;;;;;-1.20;95862.00;;;;5056474;28;20201;-64
2023/03/02 03:29:02;;;;;;;4.60;3.80;;;;;-1.20;95851.00;;;;5056183;28;20192;-64
2023/03/02 03:31:30;;;;;;;18.93;3.93;;;;;-1.10;95849.00;;;;5056018;28;20189;-63
2023/03/02 03:33:59;;;;;;;4.43;2.80;;;;;-1.10;95847.00;;;;5056078;28;20214;-63
2023/03/02 03:36:27;;;;;;;5.67;4.57;;;;;-1.10;95838.00;;;;5055776;28;20220;-63
2023/03/02 03:38:55;;;;;;;2.83;2.53;;;;;-1.20;95854.00;;;;5055794;28;20276;-63
2023/03/02 03:41:24;;;;;;;4.17;3.23;;;;;-1.20;95850.00;;;;5055931;28;20682;-66
2023/03/02 03:43:53;;;;;;;4.83;3.53;;;;;-1.30;95857.00;;;;5055684;28;20192;-64
2023/03/02 03:46:20;;;;;;;7.10;2.00;;;;;-1.30;95851.00;;;;5055846;28;20197;-63
2023/03/02 03:48:48;;;;;;;3.07;2.87;;;;;-1.50;95857.00;;;;5084244;22;20242;-58
2023/03/02 03:51:16;;;;;;;2.53;2.43;;;;;-1.40;95863.00;;;;5075423;28;20192;-58
2023/03/02 03:53:43;;;;;;;4.80;3.13;;;;;-1.40;95858.00;;;;5074029;28;20269;-58
2023/03/02 03:56:11;;;;;;;2.60;2.50;;;;;-1.50;95860.00;;;;5075246;28;20196;-59
2023/03/02 03:58:38;;;;;;;4.10;3.63;;;;;-1.50;95864.00;;;;5075203;28;20219;-58
2023/03/02 04:01:07;;;;;;;3.87;3.47;;;;;-1.40;95863.00;;;;5075200;28;20276;-59
2023/03/02 04:03:35;;;;;;;2.13;2.03;;;;;-1.40;95868.00;;;;5075345;28;20231;-58
2023/03/02 04:06:02;;;;;;;3.83;3.47;;;;;-1.50;95869.00;;;;5057058;28;20654;-58
2023/03/02 04:08:30;;;;;;;9.10;4.33;;;;;-1.40;95872.00;;;;5056934;28;20222;-58
2023/03/02 04:10:57;;;;;;;4.93;4.07;;;;;-1.40;95873.00;;;;5074479;28;20241;-58
2023/03/02 04:13:25;;;;;;;12.30;2.80;;;;;-1.40;95872.00;;;;5057029;28;20223;-58
2023/03/02 04:15:52;;;;;;;7.37;4.73;;;;;-1.40;95871.00;;;;5075116;28;20602;-58
2023/03/02 04:18:21;;;;;;;5.83;4.30;;;;;-1.40;95868.00;;;;5074748;28;20216;-58
2023/03/02 04:20:48;;;;;;;6.63;5.80;;;;;-1.40;95869.00;;;;5075406;28;20196;-58
2023/03/02 04:23:16;;;;;;;5.73;5.03;;;;;-1.30;95879.00;;;;5075484;28;20215;-58
2023/03/02 04:25:43;;;;;;;7.13;5.83;;;;;-1.30;95875.00;;;;5074676;28;20218;-58
2023/03/02 04:28:10;;;;;;;7.07;5.67;;;;;-1.20;95878.00;;;;5074520;28;20212;-58
2023/03/02 04:30:38;;;;;;;7.40;5.87;;;;;-1.20;95882.00;;;;5074894;28;20646;-58
2023/03/02 04:33:05;;;;;;;6.30;5.80;;;;;-1.10;95882.00;;;;5074586;28;20195;-58
2023/03/02 04:35:34;;;;;;;6.83;4.97;;;;;-1.10;95886.00;;;;5074547;28;20637;-58
2023/03/02 04:38:01;;;;;;;5.37;4.40;;;;;-1.10;95883.00;;;;5074377;28;20213;-58
2023/03/02 04:40:29;;;;;;;5.57;3.97;;;;;-1.10;95877.00;;;;5074644;28;20238;-58
2023/03/02 04:42:56;;;;;;;4.07;3.70;;;;;-1.00;95870.00;;;;5074217;28;20212;-58
2023/03/02 04:45:24;;;;;;;5.50;5.00;;;;;-0.90;95867.00;;;;5074290;28;20249;-58
2023/03/02 04:47:51;;;;;;;7.53;5.40;;;;;-1.00;95871.00;;;;5074119;28;20226;-59
2023/03/02 04:50:19;;;;;;;4.57;4.17;;;;;-0.90;95870.00;;;;5074198;28;20203;-59
2023/03/02 04:52:48;;;;;;;4.57;4.13;;;;;-1.00;95863.00;;;;5074319;28;20187;-59
2023/03/02 04:55:20;;;;;;;4.43;4.03;;;;;-1.00;95860.00;;;;5074598;28;20200;-56
2023/03/02 04:57:47;;;;;;;8.17;3.77;;;;;-1.10;95860.00;;;;5074581;28;20215;-59
2023/03/02 05:00:16;;;;;;;3.97;3.63;;;;;-1.20;95859.00;;;;5074241;28;20237;-59
2023/03/02 05:02:44;;;;;;;7.93;3.57;;;;;-1.10;95867.00;;;;5073898;28;20223;-59
2023/03/02 05:05:15;;;;;;;6.63;3.90;;;;;-1.10;95864.00;;;;5073965;28;20191;-59
2023/03/02 05:07:43;;;;;;;3.27;2.97;;;;;-1.10;95877.00;;;;5074184;28;20218;-59
2023/03/02 05:10:13;;;;;;;4.23;3.27;;;;;-1.10;95865.00;;;;5073771;28;20241;-58
2023/03/02 05:12:53;;;;;;;3.70;3.40;;;;;-1.10;95879.00;;;;5073730;28;20241;-59
2023/03/02 05:15:21;;;;;;;4.40;4.00;;;;;-1.10;95866.00;;;;5073702;28;20179;-57
2023/03/02 05:17:48;;;;;;;4.83;4.30;;;;;-1.10;95868.00;;;;5073604;28;20220;-60
2023/03/02 05:20:16;;;;;;;6.20;4.17;;;;;-1.10;95871.00;;;;5055604;28;20218;-57
2023/03/02 05:22:43;;;;;;;4.53;3.30;;;;;-1.10;95861.00;;;;5054668;28;20219;-57
2023/03/02 05:25:13;;;;;;;5.07;3.93;;;;;-1.20;95866.00;;;;5073686;28;20558;-57
2023/03/02 05:27:40;;;;;;;3.33;2.93;;;;;-1.20;95866.00;;;;5073313;28;20215;-57
2023/03/02 05:30:09;;;;;;;5.20;4.83;;;;;-1.10;95868.00;;;;5073421;28;20204;-57
2023/03/02 05:32:36;;;;;;;3.87;3.57;;;;;-1.10;95857.00;;;;5073372;28;20184;-57
2023/03/02 05:35:04;;;;;;;2.87;2.40;;;;;-1.10;95865.00;;;;5073407;28;20209;-59
2023/03/02 05:37:32;;;;;;;6.57;4.70;;;;;-1.00;95867.00;;;;5073310;28;20273;-58
2023/03/02 05:39:59;;;;;;;3.47;2.87;;;;;-1.00;95864.00;;;;5073773;28;20199;-57
2023/03/02 05:42:28;;;;;;;4.17;3.17;;;;;-1.00;95860.00;;;;5073587;28;20215;-57
2023/03/02 05:44:55;;;;;;;4.83;4.43;;;;;-1.10;95864.00;;;;5073221;28;20188;-58
2023/03/02 05:47:23;;;;;;;7.43;3.67;;;;;-1.00;95869.00;;;;5072961;28;20698;-59
2023/03/02 05:49:50;;;;;;;3.50;3.20;;;;;-1.00;95861.00;;;;5073592;28;20180;-58
2023/03/02 05:52:17;;;;;;;3.63;3.33;;;;;-1.10;95877.00;;;;5055093;28;20554;-58
2023/03/02 05:54:45;;;;;;;5.80;5.27;;;;;-1.00;95869.00;;;;5073337;28;20188;-58
2023/03/02 05:57:12;;;;;;;3.53;3.13;;;;;-0.90;95864.00;;;;5055136;28;20215;-58
2023/03/02 05:59:41;;;;;;;3.17;2.67;;;;;-1.00;95864.00;;;;5073272;28;20313;-58
2023/03/02 06:02:09;;;;;;;5.80;4.33;;;;;-0.90;95865.00;;;;5073275;28;20550;-58
2023/03/02 06:04:41;;;;;;;4.73;4.33;;;;;-0.90;95871.00;;;;5055370;28;20206;-58
2023/03/02 06:07:09;;;;;;;4.03;3.63;;;;;-0.90;95875.00;;;;5073521;28;20236;-58
2023/03/02 06:09:37;;;;;;;3.23;2.90;;;;;-0.90;95866.00;;;;5072974;28;20192;-58
2023/03/02 06:12:05;;;;;;;8.43;4.63;;;;;-0.90;95874.00;;;;5073188;28;20187;-58
2023/03/02 06:14:33;;;;;;;3.60;3.40;;;;;-1.00;95866.00;;;;5072927;28;20199;-58
2023/03/02 06:17:02;;;;;;;7.80;4.13;;;;;-0.80;95885.00;;;;5073018;28;20195;-58
2023/03/02 06:19:30;;;;;;;5.03;3.17;;;;;-0.60;95879.00;;;;5072824;28;20191;-58
2023/03/02 06:21:57;;;;;;;5.23;4.80;;;;;-0.50;95876.00;;;;5072786;28;20200;-58
2023/03/02 06:24:25;;;;;;;4.73;4.07;;;;;-0.50;95879.00;;;;5072785;28;20224;-58
2023/03/02 06:26:54;;;;;;;6.20;4.40;;;;;-0.60;95894.00;;;;5072984;28;20564;-58
2023/03/02 06:29:21;;;;;;;3.27;2.97;;;;;-0.90;95885.00;;;;5073058;28;20691;-58
2023/03/02 06:31:49;;;;;;;3.63;3.27;;;;;-0.90;95880.00;;;;5072772;28;20668;-58
2023/03/02 06:34:17;;;;;;;6.37;5.20;;;;;-0.80;95877.00;;;;5075155;28;20653;-58
2023/03/02 06:36:45;;;;;;;7.57;4.57;;;;;-0.80;95895.00;;;;5076998;28;20221;-58
2023/03/02 06:39:15;;;;;;;4.27;3.10;;;;;-0.70;95883.00;;;;5077518;28;20211;-58
2023/03/02 06:41:43;;;;;;;4.83;3.13;;;;;-0.60;95898.00;;;;5077546;28;20279;-58
2023/03/02 06:44:10;;;;;;;4.03;3.70;;;;;-0.60;95894.00;;;;5076589;28;20215;-58
2023/03/02 06:46:38;;;;;;;8.20;3.63;;;;;-0.60;95900.00;;;;5077355;28;20194;-58
2023/03/02 06:49:06;;;;;;;7.47;3.37;;;;;-0.60;95904.00;;;;5076513;28;20591;-58
2023/03/02 06:51:35;;;;;;;3.97;3.63;;;;;-0.50;95896.00;;;;5076741;28;20195;-58
2023/03/02 06:54:03;;;;;;;16.00;3.40;;;;;-0.40;95900.00;;;;5076392;28;20189;-58
2023/03/02 06:56:30;;;;;;;2.87;2.67;;;;;-0.50;95876.00;;;;5076754;28;20524;-58
2023/03/02 06:58:58;;;;;;;6.23;3.70;;;;;-0.50;95904.00;;;;5076241;28;20217;-60
2023/03/02 07:01:26;;;;;;;4.33;3.77;;;;;-0.40;95904.00;;;;5072070;28;20200;-59
2023/03/02 07:03:53;;;;;;;6.33;4.60;;;;;-0.40;95897.00;;;;5070396;28;20216;-58
2023/03/02 07:06:20;;;;;;;8.13;4.97;;;;;-0.40;95903.00;;;;5074758;28;20207;-58
2023/03/02 07:08:49;;;;;;;4.50;3.93;;;;;-0.40;95908.00;;;;5073780;28;20287;-57
2023/03/02 07:11:17;;;;;;;6.70;4.00;;;;;-0.40;95916.00;;;;5074578;28;20204;-58
2023/03/02 07:13:44;;;;;;;3.97;3.17;;;;;-0.40;95912.00;;;;5074223;28;20192;-57
2023/03/02 07:16:13;;;;;;;2.50;2.30;;;;;-0.40;95913.00;;;;5053937;28;20207;-58
2023/03/02 07:18:41;;;;;;;6.33;4.53;;;;;-0.20;95913.00;;;;5073324;28;20299;-58
2023/03/02 07:21:09;;;;;;;4.67;3.60;;;;;-0.10;95914.00;;;;5073277;28;20200;-58
2023/03/02 07:23:36;;;;;;;3.20;3.00;;;;;-0.10;95917.00;;;;5055697;28;20297;-58
2023/03/02 07:26:07;;;;;;;3.50;3.20;;;;;0.00;95911.00;;;;5073055;28;20200;-58
2023/03/02 07:28:35;;;;;;;8.97;4.83;;;;;-0.10;95920.00;;;;5074185;28;20229;-58
2023/03/02 07:31:03;;;;;;;4.80;4.27;;;;;-0.10;95916.00;;;;5073032;28;20694;-58
2023/03/02 07:33:31;;;;;;;7.33;5.40;;;;;0.00;95918.00;;;;5073797;28;20502;-58
2023/03/02 07:35:58;;;;;;;8.47;4.77;;;;;0.00;95934.00;;;;5072803;28;20559;-58
2023/03/02 07:38:26;;;;;;;4.40;3.43;;;;;0.10;95924.00;;;;5073030;28;20220;-58
2023/03/02 07:40:53;;;;;;;5.97;3.57;;;;;0.20;95927.00;;;;5073518;28;20201;-58
2023/03/02 07:43:22;;;;;;;5.73;3.67;;;;;0.10;95919.00;;;;5072412;28;20235;-58
2023/03/02 07:45:50;;;;;;;5.23;2.33;;;;;0.00;95918.00;;;;5071849;28;20201;-58
2023/03/02 07:48:22;;;;;;;5.33;3.60;;;;;-0.10;95924.00;;;;5055352;28;20237;-58
2023/03/02 07:50:49;;;;;;;5.37;4.23;;;;;0.00;95919.00;;;;5073431;28;20694;-58
2023/03/02 07:53:16;;;;;;;4.30;3.87;;;;;0.10;95926.00;;;;5073253;28;20201;-57
2023/03/02 07:55:44;;;;;;;5.17;4.67;;;;;0.20;95918.00;;;;5073288;28;20197;-58
2023/03/02 07:58:11;;;;;;;4.23;3.83;;;;;0.30;95927.00;;;;5073209;28;20221;-58
2023/03/02 08:00:40;;;;;;;4.80;4.40;;;;;0.40;95925.00;;;;5073297;28;20427;-58
2023/03/02 08:03:08;;;;;;;5.13;4.60;;;;;0.40;95929.00;;;;5072150;28;20228;-58
2023/03/02 08:05:35;;;;;;;4.13;3.20;;;;;0.40;95931.00;;;;5073001;28;20202;-58
2023/03/02 08:08:03;;;;;;;3.70;3.40;;;;;0.50;95929.00;;;;5073230;28;20222;-57
2023/03/02 08:10:30;;;;;;;4.50;4.10;;;;;0.60;95937.00;;;;5073068;28;20691;-58
2023/03/02 08:12:57;;;;;;;4.20;3.80;;;;;0.60;95931.00;;;;5073075;28;20193;-58
2023/03/02 08:15:25;;;;;;;3.87;3.60;;;;;0.60;95931.00;;;;5072856;28;20664;-58
2023/03/02 08:17:54;;;;;;;4.17;3.63;;;;;0.60;95949.00;;;;5073000;28;20241;-62
2023/03/02 08:20:21;;;;;;;3.90;3.60;;;;;0.70;95939.00;;;;5054899;28;20208;-58
2023/03/02 08:22:50;;;;;;;3.83;3.50;;;;;0.80;95948.00;;;;5071650;28;20550;-58
2023/03/02 08:25:18;;;;;;;4.97;4.00;;;;;0.80;95945.00;;;;5072411;28;20318;-58
2023/03/02 08:27:46;;;;;;;6.27;4.30;;;;;0.80;95935.00;;;;5073224;28;20229;-57
2023/03/02 08:30:14;;;;;;;4.63;3.73;;;;;0.80;95953.00;;;;5072149;28;20205;-58
2023/03/02 08:32:41;;;;;;;3.77;3.20;;;;;0.90;95947.00;;;;5073179;28;20199;-58
2023/03/02 08:35:11;;;;;;;4.83;3.67;;;;;1.00;95963.00;;;;5073415;28;20225;-58
2023/03/02 08:37:39;;;;;;;2.97;2.80;;;;;1.00;95951.00;;;;5072388;28;20225;-58
2023/03/02 08:40:07;;;;;;;4.20;3.80;;;;;1.00;95953.00;;;;5072464;28;20199;-59
2023/03/02 08:42:35;;;;;;;9.87;4.40;;;;;1.10;95952.00;;;;5071520;28;20670;-58
2023/03/02 08:45:02;;;;;;;3.37;3.17;;;;;1.00;95949.00;;;;5072237;28;20704;-58
2023/03/02 08:47:31;;;;;;;5.77;4.37;;;;;1.20;95950.00;;;;5071945;28;20233;-58
2023/03/02 08:49:58;;;;;;;7.73;4.17;;;;;1.20;95944.00;;;;5072365;28;20260;-58
2023/03/02 08:52:27;;;;;;;2.50;2.30;;;;;1.20;95944.00;;;;5072504;28;20206;-57
2023/03/02 08:54:55;;;;;;;4.57;4.17;;;;;1.20;95938.00;;;;5054219;28;20689;-57
2023/03/02 08:57:22;;;;;;;2.77;2.57;;;;;1.00;95938.00;;;;5071754;28;20257;-58
2023/03/02 08:59:51;;;;;;;4.33;3.07;;;;;1.00;95934.00;;;;5054337;28;20202;-57
2023/03/02 09:02:18;;;;;;;5.07;4.37;;;;;1.20;95949.00;;;;5071005;28;20194;-57
2023/03/02 09:04:46;;;;;;;5.40;5.00;;;;;1.10;95951.00;;;;5071717;28;20222;-58
2023/03/02 09:07:16;;;;;;;5.10;3.70;;;;;1.00;95950.00;;;;5071770;28;20218;-57
2023/03/02 09:09:44;;;;;;;4.07;3.03;;;;;1.00;95942.00;;;;5053947;28;20244;-58
2023/03/02 09:12:12;;;;;;;4.97;3.57;;;;;1.10;95941.00;;;;5053764;28;20199;-58
2023/03/02 09:14:39;;;;;;;8.23;3.73;;;;;1.00;95934.00;;;;5072238;28;20207;-57
2023/03/02 09:17:07;;;;;;;4.27;3.87;;;;;1.30;95930.00;;;;5068668;28;20199;-57
2023/03/02 09:19:40;;;;;;;5.60;3.73;;;;;1.30;95938.00;;;;5071725;28;20214;-58
2023/03/02 09:22:08;;;;;;;3.33;2.67;;;;;1.30;95929.00;;;;5050518;28;20206;-58
2023/03/02 09:24:36;;;;;;;2.90;2.70;;;;;1.60;95926.00;;;;5053575;28;20247;-58
2023/03/02 09:27:04;;;;;;;3.37;3.17;;;;;1.80;95934.00;;;;5071337;28;20208;-58
2023/03/02 09:29:32;;;;;;;4.77;2.83;;;;;1.70;95933.00;;;;5071826;28;20213;-58
2023/03/02 09:31:59;;;;;;;3.40;3.20;;;;;1.80;95929.00;;;;5052949;28;20209;-59
2023/03/02 09:34:28;;;;;;;4.80;4.13;;;;;2.00;95922.00;;;;5071751;28;20213;-58
2023/03/02 09:36:55;;;;;;;3.60;3.30;;;;;2.00;95933.00;;;;5071056;28;20198;-59
2023/03/02 09:39:23;;;;;;;3.57;3.27;;;;;2.10;95944.00;;;;5071591;28;20198;-58
2023/03/02 09:42:22;;;;;;;3.53;3.23;;;;;2.40;95929.00;;;;5070950;28;20697;-58
2023/03/02 09:45:24;;;;;;;8.20;4.83;;;;;2.40;95933.00;;;;5051816;28;20229;-58
2023/03/02 09:48:04;;;;;;;4.07;3.67;;;;;2.40;95942.00;;;;5070912;28;20234;-58
2023/03/02 09:50:34;;;;;;;4.80;3.57;;;;;2.30;95940.00;;;;5071076;28;20186;-58
2023/03/02 09:53:23;;;;;;;3.60;3.30;;;;;2.50;95933.00;;;;5071018;28;20203;-58
2023/03/02 09:55:57;;;;;;;4.17;3.77;;;;;2.30;95938.00;;;;5070983;28;20205;-58
2023/03/02 09:58:31;;;;;;;2.97;2.77;;;;;2.40;95940.00;;;;5070971;28;20215;-58
2023/03/02 10:01:03;;;;;;;3.93;3.63;;;;;2.40;95941.00;;;;5068893;28;20198;-58
2023/03/02 10:03:38;;;;;;;2.87;2.73;;;;;2.20;95938.00;;;;5071003;28;20196;-58
2023/03/02 10:06:05;;;;;;;3.47;3.20;;;;;2.40;95940.00;;;;5071243;28;20198;-58
2023/03/02 10:08:36;;;;;;;7.40;4.57;;;;;2.70;95943.00;;;;5070348;28;20222;-58
2023/03/02 10:11:13;;;;;;;5.97;4.07;;;;;2.50;95937.00;;;;5052933;28;20202;-59
2023/03/02 10:13:46;;;;;;;4.03;2.53;;;;;2.80;95948.00;;;;5053249;28;20195;-59
2023/03/02 10:16:23;;;;;;;4.00;2.87;;;;;2.80;95946.00;;;;5069892;28;20187;-58
2023/03/02 10:18:59;;;;;;;3.10;2.83;;;;;3.00;95949.00;;;;5065993;28;20222;-58
2023/03/02 10:21:31;;;;;;;4.80;4.13;;;;;3.00;95950.00;;;;5068188;28;20689;-58
2023/03/02 10:24:05;;;;;;;6.63;4.27;;;;;3.20;95949.00;;;;5070437;28;20564;-58
2023/03/02 10:26:40;;;;;;;3.87;3.53;;;;;3.30;95948.00;;;;5070786;28;20206;-58
2023/03/02 10:29:26;;;;;;;5.83;3.40;;;;;3.40;95952.00;;;;5070758;28;20225;-59
2023/03/02 10:31:58;;;;;;;11.40;3.57;;;;;3.70;95954.00;;;;5071067;28;20651;-58
2023/03/02 10:34:29;;;;;;;3.53;3.23;;;;;3.80;95956.00;;;;5070725;28;20180;-58
2023/03/02 10:36:57;;;;;;;3.70;3.10;;;;;3.80;95951.00;;;;5070951;28;20187;-58
2023/03/02 10:39:24;;;;;;;5.00;4.60;;;;;3.60;95965.00;;;;5070286;28;20202;-58
2023/03/02 10:41:56;;;;;;;3.37;3.07;;;;;3.70;95961.00;;;;5070878;28;20203;-59
2023/03/02 10:44:28;;;;;;;4.53;4.17;;;;;3.70;95957.00;;;;5051672;28;20269;-58
2023/03/02 10:46:56;;;;;;;7.23;2.87;;;;;3.80;95973.00;;;;5070673;28;20219;-58
2023/03/02 10:49:30;;;;;;;4.27;3.83;;;;;3.80;95959.00;;;;5070190;28;20273;-58
2023/03/02 10:52:00;;;;;;;7.40;3.30;;;;;3.90;95961.00;;;;5048453;28;20206;-58
2023/03/02 10:54:29;;;;;;;3.87;3.47;;;;;3.90;95967.00;;;;5070600;28;20206;-58
2023/03/02 10:56:58;;;;;;;7.83;4.17;;;;;4.10;95954.00;;;;5070719;28;20556;-58
2023/03/02 10:59:44;;;;;;;3.97;3.67;;;;;4.10;95956.00;;;;5070520;28;20207;-58
2023/03/02 11:02:16;;;;;;;3.87;3.03;;;;;4.30;95964.00;;;;5070408;28;20195;-58
2023/03/02 11:04:44;;;;;;;5.17;3.43;;;;;4.40;95956.00;;;;5070610;28;20210;-58
2023/03/02 11:07:16;;;;;;;3.63;2.87;;;;;4.50;95966.00;;;;5070526;28;20219;-58
2023/03/02 11:09:54;;;;;;;2.07;1.97;;;;;4.50;95951.00;;;;5069944;28;20253;-58
2023/03/02 11:12:23;;;;;;;3.10;2.90;;;;;4.30;95975.00;;;;5070876;28;20550;-58
2023/03/02 11:15:13;;;;;;;2.47;2.33;;;;;4.20;95972.00;;;;5069921;28;20708;-58
2023/03/02 11:17:42;;;;;;;4.63;4.23;;;;;4.30;95962.00;;;;5052616;28;20223;-58
2023/03/02 11:20:15;;;;;;;4.07;3.77;;;;;4.20;95967.00;;;;5070408;28;20191;-58
2023/03/02 11:22:51;;;;;;;4.00;2.90;;;;;4.10;95966.00;;;;5073425;28;20184;-58
2023/03/02 11:25:26;;;;;;;6.10;3.07;;;;;4.10;95974.00;;;;5073396;28;20238;-59
2023/03/02 11:28:00;;;;;;;5.90;3.57;;;;;3.90;95980.00;;;;5073929;28;20225;-59
2023/03/02 11:30:34;;;;;;;2.27;2.17;;;;;4.00;95974.00;;;;5072963;28;20191;-60
2023/03/02 11:33:05;;;;;;;4.20;3.90;;;;;4.10;95983.00;;;;5073472;28;20263;-60
2023/03/02 11:35:37;;;;;;;3.57;3.27;;;;;4.20;95970.00;;;;5055922;28;20283;-58
2023/03/02 11:38:15;;;;;;;3.13;2.93;;;;;4.10;95973.00;;;;5073390;28;20220;-59
2023/03/02 11:40:47;;;;;;;6.10;5.50;;;;;4.30;95979.00;;;;5073580;28;20199;-59
2023/03/02 11:43:15;;;;;;;4.17;2.80;;;;;4.60;95966.00;;;;5072104;28;20197;-60
2023/03/02 11:45:47;;;;;;;3.93;3.43;;;;;4.70;95958.00;;;;5073358;28;20216;-60
2023/03/02 11:48:22;;;;;;;3.37;3.17;;;;;4.80;95951.00;;;;5073160;28;20699;-60
2023/03/02 11:50:56;;;;;;;3.93;3.63;;;;;4.80;95965.00;;;;5055056;28;20241;-59
2023/03/02 11:53:28;;;;;;;9.73;4.83;;;;;4.80;95955.00;;;;5072515;28;20631;-59
2023/03/02 11:55:56;;;;;;;6.33;3.67;;;;;4.80;95954.00;;;;5072655;28;20266;-59
2023/03/02 11:58:26;;;;;;;4.53;4.23;;;;;4.80;95960.00;;;;5073324;28;20219;-59
2023/03/02 12:00:56;;;;;;;3.13;2.93;;;;;4.60;95963.00;;;;5073135;28;20191;-59
2023/03/02 12:03:40;;;;;;;5.30;3.40;;;;;4.60;95966.00;;;;5072840;28;20558;-59
2023/03/02 12:06:25;;;;;;;14.27;4.60;;;;;4.90;95964.00;;;;5054486;28;20223;-61
2023/03/02 12:09:06;;;;;;;2.30;2.20;;;;;4.70;95973.00;;;;5073350;28;20229;-60
2023/03/02 12:11:37;;;;;;;4.00;3.63;;;;;4.60;95971.00;;;;5073015;28;20639;-60
2023/03/02 12:14:24;;;;;;;3.00;2.80;;;;;4.60;95970.00;;;;5054488;28;20273;-59
2023/03/02 12:17:05;;;;;;;2.90;2.70;;;;;4.80;95971.00;;;;5071147;28;20206;-58
2023/03/02 12:19:41;;;;;;;4.40;2.83;;;;;4.90;95975.00;;;;5073051;28;20188;-60
2023/03/02 12:22:11;;;;;;;5.67;3.03;;;;;5.20;95974.00;;;;5072212;28;20188;-58
2023/03/02 12:24:41;;;;;;;7.50;3.10;;;;;4.70;95963.00;;;;5073533;28;20215;-58
2023/03/02 12:27:24;;;;;;;5.87;2.83;;;;;4.50;95964.00;;;;5072488;28;20254;-58
2023/03/02 12:29:56;;;;;;;4.07;3.77;;;;;5.00;95966.00;;;;5072978;28;20268;-58
2023/03/02 12:32:27;;;;;;;3.40;2.60;;;;;5.20;95959.00;;;;5072181;28;20197;-59
2023/03/02 12:34:59;;;;;;;3.90;3.60;;;;;5.40;95958.00;;;;5072456;28;20193;-59